createdAt,value
2019-04-11T09:07:29.608Z,10.80
2019-04-11T09:10:28.269Z,10.90
2019-04-11T09:13:02.923Z,10.30
2019-04-11T09:15:49.010Z,11.20
2019-04-11T09:18:17.760Z,11.10
2019-04-11T09:21:20.349Z,11.00
2019-04-11T09:23:48.109Z,11.10
2019-04-11T09:26:36.055Z,11.40
2019-04-11T09:29:04.016Z,11.70
2019-04-11T09:32:22.923Z,11.90
2019-04-11T09:34:57.642Z,11.20
2019-04-11T09:37:29.532Z,11.70
2019-04-11T09:40:17.354Z,11.80
2019-04-11T09:43:04.554Z,11.70
2019-04-11T09:45:57.712Z,11.70
2019-04-11T09:48:42.238Z,10.90
2019-04-11T09:51:33.767Z,12.00
2019-04-11T09:54:24.120Z,12.30
2019-04-11T09:57:26.826Z,12.30
2019-04-11T10:00:14.380Z,12.70
2019-04-11T10:03:01.720Z,12.80
2019-04-11T10:05:34.211Z,13.00
2019-04-11T10:08:10.728Z,13.10
2019-04-11T10:13:55.308Z,14.00
2019-04-11T10:28:19.644Z,13.40
2019-04-11T10:39:35.612Z,14.50
2019-04-11T10:42:06.457Z,15.30
2019-04-11T10:44:54.058Z,16.10
2019-04-11T10:47:23.458Z,16.70
2019-04-11T10:50:19.938Z,16.80
2019-04-11T10:52:53.092Z,16.80
2019-04-11T10:55:25.309Z,16.00
2019-04-11T10:58:04.782Z,14.90
2019-04-11T11:00:47.703Z,14.20
2019-04-11T11:05:58.189Z,13.90
2019-04-11T11:08:51.563Z,14.20
2019-04-11T11:14:10.152Z,14.10
2019-04-11T11:16:45.477Z,14.30
2019-04-11T11:25:31.309Z,14.70
2019-04-11T11:28:00.247Z,15.00
2019-04-11T11:30:47.401Z,15.80
2019-04-11T11:33:16.248Z,16.50
2019-04-11T11:36:04.588Z,16.60
2019-04-11T11:38:35.736Z,16.10
2019-04-11T11:41:28.890Z,15.70
2019-04-11T11:43:57.104Z,16.40
2019-04-11T11:46:44.632Z,17.20
2019-04-11T11:49:41.771Z,17.20
2019-04-11T11:52:13.102Z,17.30
2019-04-11T11:54:48.063Z,17.50
2019-04-11T11:57:23.642Z,17.60
2019-04-11T12:00:07.205Z,17.50
2019-04-11T12:02:39.057Z,17.60
2019-04-11T12:05:26.979Z,17.80
2019-04-11T12:08:04.408Z,17.90
2019-04-11T12:10:51.306Z,17.70
2019-04-11T12:13:45.512Z,17.10
2019-04-11T12:16:21.312Z,17.40
2019-04-11T12:19:15.861Z,17.90
2019-04-11T12:21:43.252Z,18.10
2019-04-11T12:24:20.727Z,18.40
2019-04-11T12:27:11.519Z,18.30
2019-04-11T12:29:48.918Z,17.90
2019-04-11T12:32:20.191Z,18.20
2019-04-11T12:34:57.734Z,18.00
2019-04-11T12:37:31.610Z,18.10
2019-04-11T12:40:17.512Z,18.40
2019-04-11T12:42:45.165Z,18.40
2019-04-11T12:45:31.264Z,18.80
2019-04-11T12:48:00.435Z,19.20
2019-04-11T12:50:46.646Z,19.60
2019-04-11T12:53:16.321Z,19.70
2019-04-11T12:56:13.037Z,19.30
2019-04-11T12:59:03.143Z,19.10
2019-04-11T13:01:53.329Z,19.60
2019-04-11T13:04:29.052Z,19.90
2019-04-11T13:07:04.212Z,19.20
2019-04-11T13:09:54.147Z,18.50
2019-04-11T13:12:41.339Z,18.50
2019-04-11T13:15:34.352Z,18.80
2019-04-11T13:18:23.192Z,18.30
2019-04-11T13:21:10.345Z,17.80
2019-04-11T13:23:53.925Z,17.40
2019-04-11T13:26:41.057Z,16.60
2019-04-11T13:29:18.525Z,16.10
2019-04-11T13:32:11.726Z,16.00
2019-04-11T13:34:40.070Z,17.00
2019-04-11T13:37:33.099Z,18.30
2019-04-11T13:40:23.290Z,18.80
2019-04-11T13:43:25.887Z,18.90
2019-04-11T13:46:01.797Z,19.60
2019-04-11T13:48:47.401Z,19.90
2019-04-11T13:51:24.700Z,20.50
2019-04-11T13:54:20.983Z,20.40
2019-04-11T13:57:03.675Z,19.50
2019-04-11T13:59:49.317Z,18.70
2019-04-11T14:02:24.089Z,17.70
2019-04-11T14:04:53.265Z,17.70
2019-04-11T14:07:23.423Z,18.60
2019-04-11T14:09:52.082Z,18.80
2019-04-11T14:12:19.712Z,18.10
2019-04-11T14:14:51.940Z,17.10
2019-04-11T14:17:41.626Z,16.30
2019-04-11T14:20:29.718Z,15.20
2019-04-11T14:23:15.181Z,15.10
2019-04-11T14:26:01.487Z,15.90
2019-04-11T14:29:06.754Z,16.80
2019-04-11T14:32:06.286Z,17.30
2019-04-11T14:35:01.040Z,18.00
2019-04-11T14:37:54.177Z,18.80
2019-04-11T14:40:42.068Z,19.20
2019-04-11T14:43:27.733Z,19.10
2019-04-11T14:46:23.724Z,18.90
2019-04-11T14:49:05.767Z,18.80
2019-04-11T14:51:59.072Z,18.80
2019-04-11T14:54:34.488Z,18.50
2019-04-11T14:57:22.810Z,17.20
2019-04-11T14:59:54.678Z,16.00
2019-04-11T15:02:56.818Z,15.20
2019-04-11T15:05:49.988Z,14.80
2019-04-11T15:08:26.847Z,15.40
2019-04-11T15:11:18.465Z,15.80
2019-04-11T15:21:57.631Z,14.60
2019-04-11T15:24:25.303Z,14.20
2019-04-11T15:27:12.484Z,14.20
2019-04-11T15:29:45.545Z,14.60
2019-04-11T15:32:33.416Z,14.90
2019-04-11T15:35:04.034Z,15.70
2019-04-11T15:43:31.549Z,14.70
2019-04-11T15:46:27.979Z,14.10
2019-04-11T15:49:21.285Z,13.40
2019-04-11T15:54:40.810Z,12.20
2019-04-11T15:57:42.884Z,12.20
2019-04-11T16:00:30.476Z,12.40
2019-04-11T16:03:09.312Z,13.50
2019-04-11T16:06:15.357Z,14.40
2019-04-11T16:08:54.379Z,14.60
2019-04-11T16:11:53.589Z,14.60
2019-04-11T16:14:47.390Z,14.40
2019-04-11T16:33:39.829Z,12.10
2019-04-11T16:36:11.351Z,12.00
2019-04-11T16:39:26.806Z,11.70
2019-04-11T16:42:02.783Z,11.40
2019-04-11T17:24:58.805Z,9.70
2019-04-11T17:27:26.441Z,9.60
2019-04-11T17:29:55.390Z,9.60
2019-04-11T17:32:23.633Z,9.50
2019-04-11T17:34:52.835Z,9.50
2019-04-11T17:37:20.477Z,9.50
2019-04-11T17:39:48.102Z,9.30
2019-04-11T17:42:15.819Z,9.20
2019-04-11T17:44:43.426Z,9.30
2019-04-11T17:47:11.081Z,9.10
2019-04-11T17:49:38.808Z,9.00
2019-04-11T17:52:06.585Z,9.00
2019-04-11T17:54:34.234Z,8.90
2019-04-11T20:52:42.559Z,6.10
2019-04-11T20:55:10.446Z,6.00
2019-04-11T21:02:37.195Z,5.90
2019-04-11T21:05:05.054Z,5.90
2019-04-11T21:07:32.745Z,5.80
2019-04-11T21:10:03.557Z,5.80
2019-04-11T21:12:29.842Z,5.80
2019-04-11T21:14:57.467Z,5.70
2019-04-11T21:17:25.106Z,5.70
2019-04-11T21:19:53.224Z,5.60
2019-04-11T21:22:24.027Z,5.60
2019-04-11T21:24:50.891Z,5.40
